Time;durP1;ratioP1;P1;durP2;ratioP2;P2;SDS_P1;SDS_P2;PMS_P1;PMS_P2;Temp;Humidity;BMP_temperature;BMP_pressure;BME280_temperature;BME280_humidity;BME280_pressure;Samples;Min_cycle;Max_cycle;Signal;HPM_P1;HPM_P2
2023/10/16 00:01:09;;;;;;;;;;;14.30;90.80;;;;;;4170413;28;20071;-52
2023/10/16 00:03:50;;;;;;;;;;;14.30;90.80;;;;;;4187672;28;19931;-53
2023/10/16 00:06:31;;;;;;;;;;;14.30;90.80;;;;;;4197897;28;19935;-50
2023/10/16 00:09:14;;;;;;;;;;;14.30;90.80;;;;;;4187744;28;19935;-51
2023/10/16 00:11:55;;;;;;;;;;;14.30;90.80;;;;;;4189164;28;20390;-55
2023/10/16 00:14:37;;;;;;;;;;;14.30;90.90;;;;;;4192286;28;19932;-54
2023/10/16 00:17:21;;;;;;;;;;;14.30;90.90;;;;;;4201481;28;20386;-53
2023/10/16 00:20:03;;;;;;;;;;;14.30;90.90;;;;;;4188078;28;19936;-58
2023/10/16 00:22:44;;;;;;;;;;;14.30;90.90;;;;;;4186592;28;20379;-58
2023/10/16 00:25:29;;;;;;;;;;;14.30;91.30;;;;;;4192878;28;19932;-59
2023/10/16 00:28:11;;;;;;;;;;;14.30;90.90;;;;;;4172677;28;20444;-58
2023/10/16 00:30:53;;;;;;;;;;;14.30;90.90;;;;;;4187060;28;20385;-59
2023/10/16 00:33:34;;;;;;;;;;;14.20;90.90;;;;;;4186774;28;19947;-59
2023/10/16 00:36:15;;;;;;;;;;;14.30;91.00;;;;;;4185452;28;20325;-58
2023/10/16 00:38:56;;;;;;;;;;;14.30;91.40;;;;;;4171146;28;19936;-59
2023/10/16 00:41:36;;;;;;;;;;;14.30;91.00;;;;;;4174755;28;19932;-59
2023/10/16 00:44:18;;;;;;;;;;;14.30;91.00;;;;;;4176039;28;19932;-57
2023/10/16 00:47:01;;;;;;;;;;;14.20;91.00;;;;;;4195296;28;20382;-58
2023/10/16 00:49:43;;;;;;;;;;;14.20;91.00;;;;;;4188847;28;20405;-59
2023/10/16 00:52:24;;;;;;;;;;;14.20;91.00;;;;;;4198006;28;19935;-48
2023/10/16 00:55:11;;;;;;;;;;;14.20;91.00;;;;;;4185350;28;19969;-49
2023/10/16 00:57:51;;;;;;;;;;;14.20;91.00;;;;;;4188368;28;20080;-50
2023/10/16 01:00:35;;;;;;;;;;;14.20;91.10;;;;;;4186940;28;19931;-47
2023/10/16 01:03:20;;;;;;;;;;;14.20;91.10;;;;;;4189704;28;20029;-48
2023/10/16 01:06:01;;;;;;;;;;;14.20;91.10;;;;;;4192166;28;19983;-47
2023/10/16 01:08:46;;;;;;;;;;;14.20;91.10;;;;;;4183029;28;19935;-48
2023/10/16 01:11:26;;;;;;;;;;;14.20;91.10;;;;;;4172136;28;19932;-46
2023/10/16 01:14:07;;;;;;;;;;;14.20;91.10;;;;;;4180642;28;20398;-47
2023/10/16 01:16:49;;;;;;;;;;;14.20;91.20;;;;;;4180500;28;20067;-51
2023/10/16 01:19:32;;;;;;;;;;;14.20;91.10;;;;;;4192188;28;19935;-49
2023/10/16 01:22:15;;;;;;;;;;;14.20;91.10;;;;;;4186985;28;20008;-52
2023/10/16 01:24:59;;;;;;;;;;;14.20;91.10;;;;;;4194142;28;19939;-50
2023/10/16 01:27:42;;;;;;;;;;;14.20;91.10;;;;;;4170609;28;19936;-53
2023/10/16 01:30:22;;;;;;;;;;;14.20;91.00;;;;;;4181330;28;19931;-49
2023/10/16 01:33:04;;;;;;;;;;;14.20;91.00;;;;;;4196579;28;19935;-51
2023/10/16 01:35:45;;;;;;;;;;;14.20;91.10;;;;;;4191805;28;19935;-52
2023/10/16 01:38:27;;;;;;;;;;;14.20;91.10;;;;;;4193989;28;19936;-50
2023/10/16 01:41:13;;;;;;;;;;;14.10;91.10;;;;;;4190831;28;20402;-52
2023/10/16 01:43:53;;;;;;;;;;;14.10;91.20;;;;;;4187303;28;19935;-48
2023/10/16 01:46:35;;;;;;;;;;;14.20;91.20;;;;;;4181361;28;19935;-49
2023/10/16 01:49:16;;;;;;;;;;;14.20;91.20;;;;;;4184062;28;19935;-46
2023/10/16 01:51:57;;;;;;;;;;;14.10;91.20;;;;;;4198002;28;20583;-51
2023/10/16 01:54:39;;;;;;;;;;;14.10;91.20;;;;;;4177399;28;19931;-48
2023/10/16 01:57:21;;;;;;;;;;;14.10;91.60;;;;;;4189310;28;19932;-59
2023/10/16 02:00:05;;;;;;;;;;;14.10;91.20;;;;;;4188488;28;19935;-56
2023/10/16 02:02:52;;;;;;;;;;;14.10;91.20;;;;;;4188840;28;19946;-54
2023/10/16 02:05:32;;;;;;;;;;;14.10;91.30;;;;;;4190043;28;19955;-52
2023/10/16 02:08:14;;;;;;;;;;;14.10;91.30;;;;;;4204835;28;19931;-50
2023/10/16 02:10:55;;;;;;;;;;;14.10;91.30;;;;;;4198710;28;19962;-52
2023/10/16 02:13:38;;;;;;;;;;;14.10;91.30;;;;;;4196518;28;19931;-52
2023/10/16 02:16:19;;;;;;;;;;;14.10;91.70;;;;;;4187341;28;20282;-51
2023/10/16 02:19:00;;;;;;;;;;;14.10;91.30;;;;;;4197953;28;19935;-49
2023/10/16 02:21:41;;;;;;;;;;;14.10;91.30;;;;;;4181976;28;19932;-52
2023/10/16 02:24:24;;;;;;;;;;;14.10;91.30;;;;;;4204669;28;20100;-51
2023/10/16 02:27:10;;;;;;;;;;;14.10;91.30;;;;;;4205397;28;19939;-52
2023/10/16 02:29:52;;;;;;;;;;;14.10;91.30;;;;;;4202617;28;19947;-49
2023/10/16 02:32:34;;;;;;;;;;;14.10;91.30;;;;;;4188322;28;19931;-51
2023/10/16 02:35:15;;;;;;;;;;;14.10;91.30;;;;;;4196070;28;20386;-50
2023/10/16 02:37:57;;;;;;;;;;;14.10;91.70;;;;;;4189016;28;19935;-50
2023/10/16 02:40:39;;;;;;;;;;;14.10;91.40;;;;;;4190510;28;19932;-50
2023/10/16 02:43:20;;;;;;;;;;;14.10;91.40;;;;;;4205610;28;19931;-51
2023/10/16 02:46:04;;;;;;;;;;;14.10;91.80;;;;;;4202134;28;20016;-49
2023/10/16 02:48:45;;;;;;;;;;;14.10;91.40;;;;;;4190674;28;20025;-51
2023/10/16 02:51:26;;;;;;;;;;;14.10;91.40;;;;;;4202156;28;20040;-49
2023/10/16 02:54:08;;;;;;;;;;;14.00;91.40;;;;;;4205022;28;19935;-59
2023/10/16 02:56:50;;;;;;;;;;;14.10;91.40;;;;;;4205035;28;19935;-59
2023/10/16 02:59:31;;;;;;;;;;;14.10;91.40;;;;;;4172989;28;19935;-58
2023/10/16 03:02:17;;;;;;;;;;;14.00;91.40;;;;;;4184843;28;19932;-57
2023/10/16 03:05:10;;;;;;;;;;;14.00;91.40;;;;;;4186923;28;19936;-59
2023/10/16 03:07:51;;;;;;;;;;;14.00;91.40;;;;;;4186745;28;20459;-58
2023/10/16 03:10:32;;;;;;;;;;;14.00;91.40;;;;;;4193588;28;19935;-59
2023/10/16 03:13:15;;;;;;;;;;;14.00;91.40;;;;;;4205423;28;19950;-58
2023/10/16 03:16:05;;;;;;;;;;;14.00;91.40;;;;;;4199054;28;19946;-58
2023/10/16 03:18:48;;;;;;;;;;;14.00;91.40;;;;;;4191268;28;20415;-51
2023/10/16 03:21:31;;;;;;;;;;;14.00;91.40;;;;;;4196728;28;20061;-52
2023/10/16 03:24:12;;;;;;;;;;;14.00;91.40;;;;;;4170411;28;20046;-53
2023/10/16 03:26:57;;;;;;;;;;;14.00;91.80;;;;;;4168598;28;20407;-58
2023/10/16 03:29:38;;;;;;;;;;;14.00;91.40;;;;;;4170962;28;20444;-58
2023/10/16 03:32:19;;;;;;;;;;;14.00;91.40;;;;;;4176724;28;19942;-58
2023/10/16 03:35:05;;;;;;;;;;;14.00;91.40;;;;;;4186929;28;19932;-58
2023/10/16 03:37:48;;;;;;;;;;;14.00;91.40;;;;;;4197116;28;19935;-60
2023/10/16 03:40:30;;;;;;;;;;;14.00;91.40;;;;;;4204490;28;19935;-58
2023/10/16 03:43:11;;;;;;;;;;;14.00;91.40;;;;;;4202238;28;19935;-58
2023/10/16 03:45:52;;;;;;;;;;;14.00;91.40;;;;;;4201923;28;19931;-48
2023/10/16 03:48:35;;;;;;;;;;;14.00;91.40;;;;;;4189735;28;19931;-49
2023/10/16 03:51:17;;;;;;;;;;;14.00;91.50;;;;;;4191602;28;19958;-50
2023/10/16 03:53:57;;;;;;;;;;;14.00;91.50;;;;;;4198283;28;19935;-49
2023/10/16 03:56:39;;;;;;;;;;;14.00;91.50;;;;;;4202704;28;19935;-50
2023/10/16 03:59:20;;;;;;;;;;;14.00;91.50;;;;;;4187575;28;19931;-53
2023/10/16 04:02:04;;;;;;;;;;;14.00;91.50;;;;;;4186802;28;19936;-50
2023/10/16 04:04:45;;;;;;;;;;;14.00;91.50;;;;;;4191429;28;20404;-52
2023/10/16 04:07:26;;;;;;;;;;;13.90;91.50;;;;;;4202759;28;19931;-52
2023/10/16 04:10:21;;;;;;;;;;;13.90;91.50;;;;;;4177091;28;19955;-52
2023/10/16 04:13:02;;;;;;;;;;;13.90;91.50;;;;;;4170591;28;19932;-54
2023/10/16 04:18:46;;;;;;;;;;;13.90;91.50;;;;;;4173796;28;19935;-50
2023/10/16 04:21:40;;;;;;;;;;;13.90;91.50;;;;;;4187619;28;19935;-49
2023/10/16 04:24:40;;;;;;;;;;;13.90;91.60;;;;;;4198563;28;19977;-50
2023/10/16 04:27:29;;;;;;;;;;;13.90;91.60;;;;;;4184463;28;19973;-50
2023/10/16 04:33:23;;;;;;;;;;;14.00;91.70;;;;;;4203133;28;19950;-51
2023/10/16 04:40:27;;;;;;;;;;;14.00;91.70;;;;;;4146148;28;19936;-51
2023/10/16 04:45:28;;;;;;;;;;;13.90;91.60;;;;;;4180332;28;20294;-51
2023/10/16 04:48:23;;;;;;;;;;;13.90;92.10;;;;;;4186266;28;20021;-53
2023/10/16 04:51:16;;;;;;;;;;;13.90;91.70;;;;;;4199643;28;19935;-53
2023/10/16 04:54:27;;;;;;;;;;;13.90;91.70;;;;;;4187055;28;19970;-49
2023/10/16 05:00:54;;;;;;;;;;;13.90;92.10;;;;;;4186940;28;20291;-48
2023/10/16 05:03:35;;;;;;;;;;;13.90;91.80;;;;;;4201971;28;20389;-49
2023/10/16 05:06:28;;;;;;;;;;;13.90;91.80;;;;;;4190902;28;20393;-48
2023/10/16 05:18:11;;;;;;;;;;;13.90;91.80;;;;;;4206226;28;19947;-52
2023/10/16 06:14:49;;;;;;;;;;;14.00;92.30;;;;;;4181483;28;19985;-50
2023/10/16 06:17:29;;;;;;;;;;;14.00;92.30;;;;;;4188865;28;20290;-50
2023/10/16 06:20:19;;;;;;;;;;;14.00;92.40;;;;;;4188703;28;20058;-48
2023/10/16 06:23:00;;;;;;;;;;;14.00;92.50;;;;;;4174683;28;20508;-47
2023/10/16 06:25:47;;;;;;;;;;;14.00;92.60;;;;;;4175740;28;19948;-49
2023/10/16 06:28:29;;;;;;;;;;;14.00;93.00;;;;;;4189593;28;19931;-51
2023/10/16 06:31:13;;;;;;;;;;;14.00;92.60;;;;;;4172628;28;19931;-49
2023/10/16 06:33:56;;;;;;;;;;;14.00;92.70;;;;;;4171497;28;20445;-51
2023/10/16 06:36:37;;;;;;;;;;;14.00;92.70;;;;;;4183583;28;20298;-53
2023/10/16 06:39:28;;;;;;;;;;;14.00;93.20;;;;;;4186869;28;19931;-47
2023/10/16 06:42:17;;;;;;;;;;;14.00;92.80;;;;;;4171896;28;19935;-49
2023/10/16 06:45:07;;;;;;;;;;;14.00;92.80;;;;;;4189247;28;19935;-47
2023/10/16 06:47:48;;;;;;;;;;;14.00;92.90;;;;;;4189706;28;20288;-50
2023/10/16 06:50:42;;;;;;;;;;;14.10;93.00;;;;;;4205122;28;19935;-49
2023/10/16 06:53:23;;;;;;;;;;;14.00;92.90;;;;;;4189669;28;20059;-47
2023/10/16 06:56:04;;;;;;;;;;;14.10;92.90;;;;;;4190846;28;20290;-48
2023/10/16 06:58:47;;;;;;;;;;;14.00;92.80;;;;;;4192502;28;19936;-49
2023/10/16 07:01:27;;;;;;;;;;;14.10;92.70;;;;;;4189872;28;20010;-46
2023/10/16 07:04:11;;;;;;;;;;;14.00;92.60;;;;;;4187211;28;20452;-49
2023/10/16 07:06:52;;;;;;;;;;;14.00;92.60;;;;;;4189961;28;20054;-46
2023/10/16 07:09:38;;;;;;;;;;;14.00;92.50;;;;;;4184336;28;20390;-48
2023/10/16 07:12:19;;;;;;;;;;;14.00;92.40;;;;;;4186773;28;19981;-48
2023/10/16 07:15:02;;;;;;;;;;;14.00;92.30;;;;;;4188022;28;20069;-48
2023/10/16 07:17:50;;;;;;;;;;;14.00;92.30;;;;;;4174373;28;20010;-48
2023/10/16 07:20:31;;;;;;;;;;;14.00;92.20;;;;;;4191276;28;20267;-46
2023/10/16 07:23:12;;;;;;;;;;;14.00;92.20;;;;;;4192690;28;19939;-49
2023/10/16 07:25:56;;;;;;;;;;;14.00;92.10;;;;;;4170583;28;19966;-47
2023/10/16 07:28:38;;;;;;;;;;;14.00;92.10;;;;;;4170899;28;20023;-47
2023/10/16 07:31:22;;;;;;;;;;;14.00;92.10;;;;;;4174163;28;20058;-48
2023/10/16 07:34:04;;;;;;;;;;;14.00;92.00;;;;;;4171137;28;20361;-48
2023/10/16 07:36:46;;;;;;;;;;;14.00;92.00;;;;;;4187786;28;20058;-48
2023/10/16 07:39:28;;;;;;;;;;;14.00;92.30;;;;;;4186819;28;19937;-46
2023/10/16 07:42:10;;;;;;;;;;;13.90;91.80;;;;;;4189787;28;19931;-47
2023/10/16 07:44:51;;;;;;;;;;;14.00;91.80;;;;;;4175830;28;19932;-47
2023/10/16 07:47:33;;;;;;;;;;;14.00;92.20;;;;;;4187559;28;20038;-47
2023/10/16 07:50:15;;;;;;;;;;;14.00;91.70;;;;;;4180299;28;20379;-47
2023/10/16 07:52:56;;;;;;;;;;;13.90;91.70;;;;;;4203328;28;20007;-48
2023/10/16 07:55:50;;;;;;;;;;;13.90;91.60;;;;;;4202942;28;19982;-49
2023/10/16 07:58:34;;;;;;;;;;;14.00;91.60;;;;;;4202490;28;19950;-45
2023/10/16 08:01:32;;;;;;;;;;;14.00;91.60;;;;;;4182043;28;20389;-51
2023/10/16 08:04:27;;;;;;;;;;;14.00;91.70;;;;;;4197374;28;19939;-57
2023/10/16 08:07:16;;;;;;;;;;;14.00;91.70;;;;;;4193480;28;19931;-55
2023/10/16 08:10:40;;;;;;;;;;;14.00;91.70;;;;;;4191494;28;19989;-57
2023/10/16 08:13:11;;;;;;;;;;;14.00;91.70;;;;;;4202625;28;19931;-63
2023/10/16 08:15:55;;;;;;;;;;;14.00;91.90;;;;;;4169692;28;20517;-51
2023/10/16 08:18:37;;;;;;;;;;;14.10;91.90;;;;;;4178374;28;19932;-58
2023/10/16 08:21:25;;;;;;;;;;;14.10;91.90;;;;;;4169226;28;19935;-53
2023/10/16 08:24:06;;;;;;;;;;;14.10;91.80;;;;;;4183716;28;19932;-57
2023/10/16 08:26:48;;;;;;;;;;;14.10;91.80;;;;;;4187272;28;19955;-57
2023/10/16 08:29:34;;;;;;;;;;;14.10;92.20;;;;;;4185561;28;20024;-57
2023/10/16 08:32:48;;;;;;;;;;;14.00;91.70;;;;;;4190217;28;19935;-58
2023/10/16 08:35:38;;;;;;;;;;;14.10;91.90;;;;;;4170343;28;19935;-56
2023/10/16 08:38:20;;;;;;;;;;;14.00;92.00;;;;;;4186609;28;19955;-57
2023/10/16 08:41:07;;;;;;;;;;;14.10;92.10;;;;;;4184249;28;19935;-56
2023/10/16 08:43:54;;;;;;;;;;;14.10;92.00;;;;;;4198431;28;19976;-58
2023/10/16 08:46:44;;;;;;;;;;;14.10;92.00;;;;;;4205776;28;19932;-58
2023/10/16 08:49:26;;;;;;;;;;;14.10;91.90;;;;;;4203170;28;19931;-58
2023/10/16 08:52:10;;;;;;;;;;;14.10;92.20;;;;;;4203155;28;19931;-56
2023/10/16 08:55:01;;;;;;;;;;;14.10;91.90;;;;;;4190274;28;19966;-56
2023/10/16 08:57:43;;;;;;;;;;;14.20;91.90;;;;;;4191159;28;19939;-54
2023/10/16 09:00:30;;;;;;;;;;;14.20;91.80;;;;;;4177128;28;19935;-56
2023/10/16 09:03:12;;;;;;;;;;;14.20;91.80;;;;;;4175198;28;19937;-59
2023/10/16 09:05:54;;;;;;;;;;;14.20;91.70;;;;;;4198873;28;19935;-60
2023/10/16 09:08:35;;;;;;;;;;;14.20;91.70;;;;;;4217322;28;20401;-55
2023/10/16 09:11:17;;;;;;;;;;;14.20;91.70;;;;;;4205346;28;19940;-57
2023/10/16 09:13:59;;;;;;;;;;;14.20;91.70;;;;;;4207171;28;19966;-57
2023/10/16 09:16:43;;;;;;;;;;;14.30;91.80;;;;;;4206051;28;19976;-56
2023/10/16 09:19:32;;;;;;;;;;;14.30;91.80;;;;;;4195197;28;19935;-57
2023/10/16 09:22:13;;;;;;;;;;;14.30;92.20;;;;;;4190183;28;19981;-57
2023/10/16 09:24:55;;;;;;;;;;;14.30;91.90;;;;;;4182348;28;20352;-56
2023/10/16 09:27:39;;;;;;;;;;;14.30;91.90;;;;;;4188841;28;20013;-57
2023/10/16 09:30:23;;;;;;;;;;;14.30;91.80;;;;;;4180798;28;19984;-55
2023/10/16 09:33:06;;;;;;;;;;;14.40;91.90;;;;;;4184165;28;20390;-54
2023/10/16 09:35:47;;;;;;;;;;;14.40;92.00;;;;;;4188257;28;19935;-55
2023/10/16 09:38:33;;;;;;;;;;;14.40;92.10;;;;;;4203164;28;19934;-56
2023/10/16 09:44:22;;;;;;;;;;;14.40;92.50;;;;;;4190943;28;20075;-56
2023/10/16 09:47:25;;;;;;;;;;;14.40;92.10;;;;;;4205526;28;19963;-54
2023/10/16 09:50:16;;;;;;;;;;;14.40;92.00;;;;;;4206150;28;19931;-54
2023/10/16 09:52:58;;;;;;;;;;;14.40;92.00;;;;;;4204385;28;20397;-56
2023/10/16 09:55:39;;;;;;;;;;;14.40;92.30;;;;;;4205432;28;19982;-56
2023/10/16 09:58:21;;;;;;;;;;;14.40;91.90;;;;;;4178349;28;19936;-56
2023/10/16 10:01:06;;;;;;;;;;;14.40;91.80;;;;;;4201071;28;19931;-57
2023/10/16 10:03:47;;;;;;;;;;;14.40;92.20;;;;;;4189186;28;19939;-57
2023/10/16 10:06:34;;;;;;;;;;;14.40;91.80;;;;;;4203785;28;19966;-56
2023/10/16 10:09:40;;;;;;;;;;;14.40;91.80;;;;;;4192808;28;19942;-57
2023/10/16 10:12:28;;;;;;;;;;;14.50;91.70;;;;;;4202020;28;20429;-58
2023/10/16 10:15:14;;;;;;;;;;;14.40;91.70;;;;;;4191044;28;19931;-54
2023/10/16 10:18:17;;;;;;;;;;;14.40;91.60;;;;;;4172336;28;20027;-56
2023/10/16 10:20:59;;;;;;;;;;;14.40;91.50;;;;;;4171747;28;19932;-53
2023/10/16 10:23:41;;;;;;;;;;;14.50;91.50;;;;;;4173150;28;20054;-56
2023/10/16 10:26:26;;;;;;;;;;;14.50;91.40;;;;;;4187781;28;19936;-56
2023/10/16 10:29:09;;;;;;;;;;;14.40;91.10;;;;;;4173050;28;19932;-52
2023/10/16 10:31:51;;;;;;;;;;;14.50;91.30;;;;;;4182176;28;19932;-52
2023/10/16 10:34:33;;;;;;;;;;;14.50;91.30;;;;;;4189190;28;20333;-57
2023/10/16 10:37:36;;;;;;;;;;;14.50;91.30;;;;;;4189325;28;19970;-57
2023/10/16 10:40:21;;;;;;;;;;;14.50;91.20;;;;;;4187734;28;19931;-54
2023/10/16 10:43:04;;;;;;;;;;;14.50;91.20;;;;;;4191477;28;19931;-53
2023/10/16 10:45:51;;;;;;;;;;;14.50;91.30;;;;;;4188760;28;19951;-52
2023/10/16 10:48:32;;;;;;;;;;;14.50;91.30;;;;;;4176631;28;19982;-51
2023/10/16 10:51:16;;;;;;;;;;;14.50;91.20;;;;;;4185794;28;20010;-51
2023/10/16 10:53:57;;;;;;;;;;;14.50;91.20;;;;;;4171962;28;20021;-49
2023/10/16 10:56:39;;;;;;;;;;;14.60;91.20;;;;;;4171813;28;20381;-52
2023/10/16 10:59:39;;;;;;;;;;;14.60;90.60;;;;;;4171812;28;19936;-50
2023/10/16 11:02:51;;;;;;;;;;;14.60;90.00;;;;;;4187165;28;19985;-57
2023/10/16 11:05:25;;;;;;;;;;;14.60;89.00;;;;;;4186051;28;19974;-55
2023/10/16 11:08:29;;;;;;;;;;;14.60;89.10;;;;;;4196170;28;19935;-58
2023/10/16 11:11:10;;;;;;;;;;;14.60;89.30;;;;;;4188547;28;20298;-48
2023/10/16 11:13:51;;;;;;;;;;;14.60;89.70;;;;;;4197956;28;20289;-51
2023/10/16 11:16:32;;;;;;;;;;;14.60;90.10;;;;;;4188308;28;19936;-51
2023/10/16 11:19:23;;;;;;;;;;;14.60;89.30;;;;;;4187406;28;20295;-57
2023/10/16 11:22:09;;;;;;;;;;;14.60;89.70;;;;;;4188199;28;19939;-55
2023/10/16 11:24:52;;;;;;;;;;;14.60;89.20;;;;;;4200734;28;20271;-48
2023/10/16 11:27:34;;;;;;;;;;;14.70;89.30;;;;;;4196467;28;19936;-48
2023/10/16 11:30:18;;;;;;;;;;;14.60;88.40;;;;;;4204788;28;20001;-47
2023/10/16 11:32:59;;;;;;;;;;;14.60;86.70;;;;;;4202680;28;20020;-48
2023/10/16 11:35:43;;;;;;;;;;;14.70;86.00;;;;;;4203092;28;20386;-50
2023/10/16 11:38:29;;;;;;;;;;;14.70;86.10;;;;;;4189545;28;19932;-47
2023/10/16 11:41:16;;;;;;;;;;;14.70;86.30;;;;;;4187531;28;19930;-48
2023/10/16 11:44:01;;;;;;;;;;;14.70;87.10;;;;;;4204441;28;19973;-51
2023/10/16 11:46:45;;;;;;;;;;;14.70;86.60;;;;;;4204255;28;19957;-51
2023/10/16 11:49:35;;;;;;;;;;;14.70;86.00;;;;;;4204242;28;19950;-48
2023/10/16 11:52:21;;;;;;;;;;;14.70;86.80;;;;;;4204739;28;19943;-57
2023/10/16 11:55:07;;;;;;;;;;;14.80;87.00;;;;;;4191291;28;19947;-56
2023/10/16 11:57:52;;;;;;;;;;;14.70;86.70;;;;;;4187136;28;20395;-51
2023/10/16 12:00:35;;;;;;;;;;;14.70;85.40;;;;;;4187267;28;19935;-48
2023/10/16 12:03:17;;;;;;;;;;;14.70;85.10;;;;;;4200268;28;19950;-50
2023/10/16 12:05:58;;;;;;;;;;;14.70;85.30;;;;;;4203933;28;20046;-57
2023/10/16 12:08:40;;;;;;;;;;;14.70;85.20;;;;;;4176448;28;19931;-57
2023/10/16 12:11:22;;;;;;;;;;;14.70;86.30;;;;;;4187743;28;19947;-57
2023/10/16 12:14:07;;;;;;;;;;;14.70;86.10;;;;;;4186638;28;20432;-50
2023/10/16 12:16:48;;;;;;;;;;;14.80;86.50;;;;;;4193615;28;20385;-52
2023/10/16 12:19:29;;;;;;;;;;;14.70;87.00;;;;;;4179640;28;19936;-47
2023/10/16 12:22:10;;;;;;;;;;;14.70;86.80;;;;;;4157304;28;19959;-50
2023/10/16 12:24:51;;;;;;;;;;;14.70;86.70;;;;;;4186881;28;19930;-52
2023/10/16 12:27:31;;;;;;;;;;;14.70;87.40;;;;;;4171051;28;19951;-49
2023/10/16 12:30:14;;;;;;;;;;;14.80;87.80;;;;;;4175298;28;19932;-48
2023/10/16 12:32:55;;;;;;;;;;;14.80;87.80;;;;;;4201301;28;19931;-48
2023/10/16 12:35:36;;;;;;;;;;;14.80;87.80;;;;;;4202905;28;20302;-48
2023/10/16 12:38:18;;;;;;;;;;;14.80;87.60;;;;;;4179220;28;20390;-51
2023/10/16 12:40:59;;;;;;;;;;;14.80;87.10;;;;;;4170343;28;20082;-48
2023/10/16 12:43:40;;;;;;;;;;;14.80;87.40;;;;;;4170523;28;20000;-50
2023/10/16 12:46:22;;;;;;;;;;;14.80;87.20;;;;;;4175401;28;20492;-50
2023/10/16 12:49:06;;;;;;;;;;;14.80;87.40;;;;;;4180211;28;19978;-46
2023/10/16 12:51:48;;;;;;;;;;;14.80;86.30;;;;;;4179281;28;19932;-48
2023/10/16 12:54:30;;;;;;;;;;;14.80;86.00;;;;;;4189466;28;19936;-48
2023/10/16 12:57:11;;;;;;;;;;;14.80;86.00;;;;;;4187304;28;20417;-47
2023/10/16 12:59:56;;;;;;;;;;;14.80;85.60;;;;;;4187027;28;19932;-48
2023/10/16 13:02:40;;;;;;;;;;;14.80;85.70;;;;;;4192132;28;20062;-49
2023/10/16 13:05:24;;;;;;;;;;;14.90;86.10;;;;;;4170549;28;19966;-48
2023/10/16 13:08:07;;;;;;;;;;;14.90;87.00;;;;;;4180658;28;19958;-49
2023/10/16 13:10:48;;;;;;;;;;;14.90;86.80;;;;;;4184736;28;19932;-47
2023/10/16 13:13:29;;;;;;;;;;;14.90;87.10;;;;;;4200120;28;20013;-47
2023/10/16 13:16:10;;;;;;;;;;;14.90;88.00;;;;;;4203735;28;20005;-55
2023/10/16 13:18:57;;;;;;;;;;;14.90;88.30;;;;;;4203429;28;19951;-53
2023/10/16 13:21:41;;;;;;;;;;;14.90;88.50;;;;;;4203259;28;20020;-57
2023/10/16 13:24:23;;;;;;;;;;;14.90;88.50;;;;;;4181237;28;20341;-57
2023/10/16 13:27:06;;;;;;;;;;;14.90;86.50;;;;;;4186277;28;20054;-58
2023/10/16 13:29:47;;;;;;;;;;;14.90;87.20;;;;;;4174868;28;19935;-56
2023/10/16 13:32:28;;;;;;;;;;;14.90;85.70;;;;;;4173248;28;19936;-55
2023/10/16 13:35:13;;;;;;;;;;;14.90;85.20;;;;;;4189398;28;19977;-56
2023/10/16 13:37:58;;;;;;;;;;;15.00;85.30;;;;;;4191038;28;20057;-56
2023/10/16 13:40:39;;;;;;;;;;;14.90;85.30;;;;;;4189633;28;19932;-47
2023/10/16 13:43:20;;;;;;;;;;;14.90;85.00;;;;;;4189143;28;19934;-47
2023/10/16 13:46:01;;;;;;;;;;;14.90;85.40;;;;;;4192895;28;19943;-47
2023/10/16 13:48:45;;;;;;;;;;;14.90;85.90;;;;;;4205027;28;19973;-49
2023/10/16 13:51:27;;;;;;;;;;;14.90;87.10;;;;;;4190775;28;19934;-46
2023/10/16 13:54:12;;;;;;;;;;;14.90;86.80;;;;;;4189192;28;19931;-48
2023/10/16 13:56:53;;;;;;;;;;;14.90;86.10;;;;;;4194743;28;19973;-46
2023/10/16 13:59:34;;;;;;;;;;;14.90;86.30;;;;;;4194268;28;19938;-52
2023/10/16 14:02:16;;;;;;;;;;;15.00;86.40;;;;;;4189285;28;19935;-53
2023/10/16 14:04:58;;;;;;;;;;;15.00;85.60;;;;;;4172610;28;19936;-51
2023/10/16 14:07:43;;;;;;;;;;;15.00;85.10;;;;;;4153788;28;20062;-53
2023/10/16 14:10:24;;;;;;;;;;;15.10;84.90;;;;;;4201648;28;19935;-49
2023/10/16 14:13:18;;;;;;;;;;;15.10;84.70;;;;;;4204871;28;20390;-47
2023/10/16 14:16:09;;;;;;;;;;;15.10;85.00;;;;;;4204095;28;19997;-58
2023/10/16 14:18:49;;;;;;;;;;;15.20;85.10;;;;;;4188366;28;20070;-49
2023/10/16 14:21:30;;;;;;;;;;;15.20;85.50;;;;;;4178439;28;19932;-50
2023/10/16 14:24:17;;;;;;;;;;;15.20;86.00;;;;;;4204193;28;20398;-53
2023/10/16 14:26:59;;;;;;;;;;;15.20;86.20;;;;;;4176631;28;19979;-57
2023/10/16 14:29:45;;;;;;;;;;;15.30;85.80;;;;;;4172527;28;19935;-58
2023/10/16 14:32:26;;;;;;;;;;;15.30;85.70;;;;;;4175907;28;19934;-58
2023/10/16 14:35:07;;;;;;;;;;;15.30;84.90;;;;;;4199894;28;20274;-57
2023/10/16 14:37:48;;;;;;;;;;;15.20;84.40;;;;;;4205308;28;19931;-56
2023/10/16 14:40:35;;;;;;;;;;;15.30;83.70;;;;;;4186886;28;19947;-52
2023/10/16 14:43:17;;;;;;;;;;;15.50;83.10;;;;;;4195816;28;20362;-51
2023/10/16 14:46:00;;;;;;;;;;;15.60;82.80;;;;;;4194168;28;19935;-52
2023/10/16 14:48:43;;;;;;;;;;;15.70;82.50;;;;;;4191111;28;19932;-52
2023/10/16 14:51:24;;;;;;;;;;;15.80;82.40;;;;;;4186928;28;19935;-51
2023/10/16 14:54:05;;;;;;;;;;;15.90;81.90;;;;;;4174406;28;19936;-57
2023/10/16 14:56:49;;;;;;;;;;;15.90;81.80;;;;;;4171333;28;19936;-48
2023/10/16 14:59:32;;;;;;;;;;;15.90;81.60;;;;;;4190346;28;19935;-48
2023/10/16 15:02:13;;;;;;;;;;;15.80;82.60;;;;;;4188354;28;19935;-49
2023/10/16 15:04:54;;;;;;;;;;;15.80;81.90;;;;;;4199561;28;19931;-57
2023/10/16 15:07:36;;;;;;;;;;;15.80;82.10;;;;;;4190719;28;19947;-56
2023/10/16 15:10:17;;;;;;;;;;;15.80;82.20;;;;;;4172377;28;20054;-55
2023/10/16 15:13:14;;;;;;;;;;;15.70;82.40;;;;;;4171269;28;20678;-55
2023/10/16 15:15:55;;;;;;;;;;;15.70;82.70;;;;;;4171447;28;19994;-56
2023/10/16 15:18:38;;;;;;;;;;;15.60;82.90;;;;;;4184612;28;20066;-56
2023/10/16 15:21:19;;;;;;;;;;;15.60;83.10;;;;;;4184454;28;20259;-56
2023/10/16 15:24:02;;;;;;;;;;;15.60;83.40;;;;;;4170302;28;20059;-55
2023/10/16 15:26:43;;;;;;;;;;;15.60;84.20;;;;;;4187536;28;19931;-55
2023/10/16 15:29:26;;;;;;;;;;;16.00;83.50;;;;;;4189063;28;19936;-58
2023/10/16 15:32:07;;;;;;;;;;;16.50;82.80;;;;;;4189087;28;20382;-58
2023/10/16 15:34:48;;;;;;;;;;;17.00;79.80;;;;;;4187755;28;19931;-58
2023/10/16 15:37:29;;;;;;;;;;;17.40;78.10;;;;;;4185155;28;19951;-58
2023/10/16 15:40:15;;;;;;;;;;;17.70;78.00;;;;;;4198514;28;19935;-58
2023/10/16 15:42:59;;;;;;;;;;;17.90;76.40;;;;;;4203309;28;19938;-58
2023/10/16 15:45:42;;;;;;;;;;;18.10;76.50;;;;;;4187224;28;20738;-58
2023/10/16 15:48:22;;;;;;;;;;;18.30;75.20;;;;;;4192810;28;19935;-58
2023/10/16 15:51:05;;;;;;;;;;;18.40;75.30;;;;;;4198499;28;20085;-59
2023/10/16 15:53:50;;;;;;;;;;;18.50;74.80;;;;;;4196470;28;19931;-58
2023/10/16 15:56:31;;;;;;;;;;;18.70;74.30;;;;;;4186103;28;19962;-53
2023/10/16 15:59:12;;;;;;;;;;;18.80;74.10;;;;;;4185602;28;19977;-53
2023/10/16 16:01:55;;;;;;;;;;;18.80;73.70;;;;;;4185766;28;19975;-59
2023/10/16 16:04:36;;;;;;;;;;;18.80;73.10;;;;;;4185303;28;20404;-58
2023/10/16 16:07:19;;;;;;;;;;;18.90;72.90;;;;;;4186456;28;19931;-54
2023/10/16 16:10:00;;;;;;;;;;;18.90;72.80;;;;;;4186516;28;19932;-53
2023/10/16 16:12:42;;;;;;;;;;;18.90;73.00;;;;;;4171116;28;19932;-50
2023/10/16 16:15:24;;;;;;;;;;;18.80;73.10;;;;;;4173022;28;19931;-58
2023/10/16 16:18:06;;;;;;;;;;;18.90;72.90;;;;;;4200167;28;20386;-58
2023/10/16 16:20:47;;;;;;;;;;;18.90;72.90;;;;;;4187396;28;19935;-58
2023/10/16 16:23:28;;;;;;;;;;;18.80;72.90;;;;;;4185793;28;20568;-58
2023/10/16 16:26:10;;;;;;;;;;;18.70;73.40;;;;;;4185031;28;19970;-53
2023/10/16 16:28:51;;;;;;;;;;;18.70;73.50;;;;;;4201138;28;19986;-50
2023/10/16 16:31:32;;;;;;;;;;;18.70;73.50;;;;;;4203074;28;19932;-58
2023/10/16 16:34:15;;;;;;;;;;;18.70;73.70;;;;;;4203650;28;19932;-59
2023/10/16 16:36:56;;;;;;;;;;;18.70;74.30;;;;;;4203453;28;20066;-58
2023/10/16 16:39:37;;;;;;;;;;;18.60;74.60;;;;;;4173442;28;19978;-57
2023/10/16 16:42:18;;;;;;;;;;;18.70;74.40;;;;;;4168652;28;19983;-57
2023/10/16 16:44:59;;;;;;;;;;;18.70;74.20;;;;;;4186390;28;19931;-58
2023/10/16 16:47:41;;;;;;;;;;;18.70;74.30;;;;;;4185188;28;19943;-58
2023/10/16 16:50:24;;;;;;;;;;;18.60;74.30;;;;;;4188371;28;19931;-49
2023/10/16 16:53:05;;;;;;;;;;;18.60;74.70;;;;;;4202471;28;19931;-59
2023/10/16 16:55:46;;;;;;;;;;;18.50;74.80;;;;;;4202967;28;19935;-59
2023/10/16 16:58:27;;;;;;;;;;;18.40;75.50;;;;;;4196839;28;19934;-50
2023/10/16 17:01:08;;;;;;;;;;;18.40;76.00;;;;;;4202938;28;20334;-50
2023/10/16 17:03:49;;;;;;;;;;;18.30;76.00;;;;;;4203429;28;20430;-50
2023/10/16 17:06:32;;;;;;;;;;;18.30;76.30;;;;;;4206436;28;20397;-51
2023/10/16 17:09:15;;;;;;;;;;;18.30;76.50;;;;;;4205654;28;19976;-58
2023/10/16 17:11:56;;;;;;;;;;;18.20;76.40;;;;;;4206896;28;19939;-57
2023/10/16 17:14:36;;;;;;;;;;;18.20;76.60;;;;;;4207371;28;19947;-51